F/V Papi Paul — FVFG — position and weather

sailwx.info

Track history (hours):
 
Tides and Currents Weather Stations Pressure Air Temp Water Temp Dewpoint Dewpoint Depression Visibility Wind Speed Wind Dir Waves Ship Positions

F/V Papi Paul

Last reported at 2017-Sep-22 01:54 UTC. Time now 2017-Sep-23 16:33 UTC.
Position N 47°21' W 002°31'.

Length 18 m.

Type: Fishing. MMSI: 228364000.

Date/timePositionNaut miles runAvg speedWind from/ knotsBaromVisibWave heightAir tempDewpointWater temp
2017-Sep-22 01:54N 47°21' W 002°31'0 0.0
2017-Sep-22 01:23N 47°21' W 002°31'0 0.0
2017-Sep-22 00:50N 47°21' W 002°31'0 0.0
2017-Sep-22 00:30N 47°21' W 002°31'0 0.0
2017-Sep-22 00:00N 47°21' W 002°31'0 0.0
2017-Sep-21 23:30N 47°21' W 002°31'0 0.0
2017-Sep-21 22:53N 47°21' W 002°31'0 0.0
2017-Sep-21 22:28N 47°21' W 002°31'0 0.0
2017-Sep-21 22:00N 47°21' W 002°31'0 0.0
2017-Sep-21 21:29N 47°21' W 002°31'0 0.0
2017-Sep-21 20:56N 47°21' W 002°31'0 0.0
2017-Sep-21 15:29N 47°21' W 002°31'2 3.6
2017-Sep-21 15:01N 47°20' W 002°33'1 2.5
2017-Sep-21 14:28N 47°20' W 002°35'2 3.1
2017-Sep-21 13:51N 47°18' W 002°34'9 4.9
2017-Sep-21 11:59N 47°09' W 002°31'2 3.6
2017-Sep-21 11:23N 47°07' W 002°31'2 2.3
2017-Sep-21 10:34N 47°08' W 002°28'0 2.7
2017-Sep-21 10:24N 47°08' W 002°28'2 3.9
2017-Sep-21 09:58N 47°07' W 002°31'1 2.9
2017-Sep-21 09:29N 47°08' W 002°29'2 4.3
2017-Sep-21 08:55N 47°08' W 002°32'2 4.5
2017-Sep-21 08:30N 47°09' W 002°30'1 1.5
2017-Sep-21 08:00N 47°08' W 002°29'1 1.0
2017-Sep-21 07:11N 47°09' W 002°28'2 4.9
2017-Sep-21 06:45N 47°09' W 002°25'1 6.0
2017-Sep-21 06:30N 47°08' W 002°23'3 5.8
2017-Sep-21 06:00N 47°10' W 002°25'4 7.2
2017-Sep-21 05:30N 47°13' W 002°29'4 7.4
2017-Sep-21 05:00N 47°16' W 002°32'3 5.8
2017-Sep-21 04:30N 47°18' W 002°35'4 7.0
2017-Sep-21 03:59N 47°21' W 002°31'0 0.0
2017-Sep-21 03:28N 47°21' W 002°31'0 0.0
2017-Sep-21 03:00N 47°21' W 002°31'0 0.0
2017-Sep-21 02:30N 47°21' W 002°31'0 0.0
2017-Sep-21 02:00N 47°21' W 002°31'0 0.0
2017-Sep-21 01:25N 47°21' W 002°31'0 0.0
2017-Sep-21 00:56N 47°21' W 002°31'0 0.0
2017-Sep-21 00:27N 47°21' W 002°31'0 0.0
2017-Sep-21 00:00N 47°21' W 002°31'0 0.0
2017-Sep-20 20:13N 47°21' W 002°31'0 0.0
2017-Sep-20 19:52N 47°21' W 002°31'0 0.0
2017-Sep-20 19:31N 47°21' W 002°31'0 0.0
2017-Sep-20 19:00N 47°21' W 002°31'0 0.0
2017-Sep-20 18:30N 47°21' W 002°31'0 0.0
2017-Sep-20 17:56N 47°21' W 002°31'0 0.0
2017-Sep-20 17:28N 47°21' W 002°31'0 0.0
2017-Sep-20 16:57N 47°21' W 002°31'1 3.3
2017-Sep-20 16:31N 47°20' W 002°32'4 8.0
2017-Sep-20 15:59N 47°16' W 002°31'6 9.7
2017-Sep-20 15:20N 47°13' W 002°23'2 5.8
2017-Sep-20 14:58N 47°12' W 002°20'1 1.0
2017-Sep-20 14:00N 47°12' W 002°21'1 1.6
2017-Sep-20 13:29N 47°13' W 002°20'1 2.2
2017-Sep-20 12:57N 47°12' W 002°22'2 3.8
2017-Sep-20 12:22N 47°11' W 002°24'1 2.6
2017-Sep-20 11:59N 47°10' W 002°25'2 3.8
2017-Sep-20 11:30N 47°08' W 002°25'2 3.8
2017-Sep-20 10:59N 47°08' W 002°22'2 3.2
2017-Sep-20 10:30N 47°09' W 002°24'1 1.6
2017-Sep-20 10:00N 47°09' W 002°25'0 0.8
2017-Sep-20 09:28N 47°09' W 002°24'1 2.9
2017-Sep-20 09:00N 47°09' W 002°26'1 2.4
2017-Sep-20 08:30N 47°10' W 002°25'0 0.5
2017-Sep-20 08:00N 47°09' W 002°25'1 1.2
2017-Sep-20 07:30N 47°09' W 002°24'1 1.9
2017-Sep-20 06:55N 47°08' W 002°25'2 4.0
2017-Sep-20 06:30N 47°09' W 002°25'2 3.8
2017-Sep-20 06:00N 47°08' W 002°23'4 7.6
2017-Sep-20 05:30N 47°11' W 002°26'5 8.4
2017-Sep-20 04:54N 47°15' W 002°31'3 8.4
2017-Sep-20 04:30N 47°18' W 002°34'4 1.4
2017-Sep-20 01:35N 47°21' W 002°31'0 0.0
2017-Sep-20 01:20N 47°21' W 002°31'0 0.0
2017-Sep-20 00:25N 47°21' W 002°31'0 0.0
2017-Sep-19 18:40N 47°21' W 002°31'1 8.3
2017-Sep-19 18:30N 47°20' W 002°32'2 4.1
2017-Sep-19 17:59N 47°18' W 002°34'3 5.5
2017-Sep-19 17:30N 47°16' W 002°33'11 3.8
2017-Sep-19 14:40N 47°08' W 002°23'1 0.6
2017-Sep-19 12:55N 47°09' W 002°23'8 1.0
2017-Sep-19 04:43N 47°10' W 002°34'1110.2
2017-Sep-19 03:40N 47°21' W 002°34'0 0.8
2017-Sep-19 03:30N 47°21' W 002°34'2 1.1
2017-Sep-19 01:17N 47°21' W 002°31'0 0.0
2017-Sep-19 00:53N 47°21' W 002°31'0 0.0
2017-Sep-18 23:33N 47°21' W 002°31'0 0.0
2017-Sep-18 23:08N 47°21' W 002°31'0 0.0
2017-Sep-18 19:18N 47°21' W 002°31'3 9.1
2017-Sep-18 19:00N 47°19' W 002°34'5 9.8
2017-Sep-18 18:30N 47°14' W 002°35'5 9.9
2017-Sep-18 18:00N 47°09' W 002°35'9 1.4
2017-Sep-18 11:40N 47°03' W 002°25'2 8.4
2017-Sep-18 11:24N 47°05' W 002°23'2 5.6
2017-Sep-18 10:58N 47°07' W 002°21'1 2.7
2017-Sep-18 10:30N 47°06' W 002°19'2 3.8
2017-Sep-18 09:59N 47°05' W 002°22'1 2.3
2017-Sep-18 09:30N 47°05' W 002°20'2 3.8
2017-Sep-18 08:54N 47°04' W 002°23'2 5.4
2017-Sep-18 08:30N 47°06' W 002°22'4 7.0
2017-Sep-18 08:00N 47°09' W 002°24'4 7.6
2017-Sep-18 07:30N 47°12' W 002°20'2 4.4
2017-Sep-18 07:00N 47°12' W 002°17'2 3.1
2017-Sep-18 06:28N 47°12' W 002°20'2 3.6
2017-Sep-18 05:49N 47°13' W 002°22'1 3.8
2017-Sep-18 05:30N 47°14' W 002°24'4 7.6
2017-Sep-18 04:59N 47°15' W 002°29'4 8.1
2017-Sep-18 04:30N 47°18' W 002°34'3 5.4
2017-Sep-18 04:00N 47°20' W 002°32'1 2.1
2017-Sep-18 03:30N 47°21' W 002°31'0 0.1
2017-Sep-18 03:00N 47°21' W 002°31'0 0.0
2017-Sep-18 02:23N 47°21' W 002°31'0 0.0
2017-Sep-18 01:57N 47°21' W 002°31'0 0.0
2017-Sep-18 01:28N 47°21' W 002°31'0 0.0
2017-Sep-18 01:00N 47°21' W 002°31'0 0.0
2017-Sep-18 00:22N 47°21' W 002°31'0 0.0
2017-Sep-17 23:59N 47°21' W 002°31'0 0.0
2017-Sep-17 22:55N 47°21' W 002°31'0 0.0
2017-Sep-17 22:19N 47°21' W 002°31'0 0.0
2017-Sep-17 21:50N 47°21' W 002°31'0 0.0
2017-Sep-17 21:01N 47°21' W 002°31'0 0.0
2017-Sep-17 18:23N 47°21' W 002°31'2 4.0
2017-Sep-17 18:00N 47°20' W 002°32'3 5.7
2017-Sep-17 17:30N 47°17' W 002°34'8 9.4
2017-Sep-17 16:42N 47°13' W 002°24'3 8.0
2017-Sep-17 16:18N 47°12' W 002°20'0 0.6
2017-Sep-17 16:00N 47°12' W 002°20'1 1.3
2017-Sep-17 15:24N 47°12' W 002°19'2 3.8
2017-Sep-17 15:00N 47°12' W 002°21'2 4.4
2017-Sep-17 14:30N 47°13' W 002°18'1 2.7
2017-Sep-17 14:00N 47°11' W 002°18'4 7.3
2017-Sep-17 13:30N 47°09' W 002°22'5 7.2
2017-Sep-17 12:47N 47°08' W 002°29'2 4.9
2017-Sep-17 12:21N 47°09' W 002°27'2 5.3
2017-Sep-17 12:00N 47°09' W 002°24'1 1.1
2017-Sep-17 11:21N 47°10' W 002°25'2 4.1
2017-Sep-17 10:55N 47°08' W 002°26'2 3.4
2017-Sep-17 10:27N 47°06' W 002°25'5 1.1
2017-Sep-17 05:50N 47°02' W 002°29'2 6.6
2017-Sep-17 05:29N 47°04' W 002°27'1 1.8
2017-Sep-17 05:00N 47°04' W 002°28'0 0.4
2017-Sep-17 04:30N 47°04' W 002°28'1 1.0
2017-Sep-17 03:54N 47°04' W 002°27'0 0.9
2017-Sep-17 03:30N 47°05' W 002°27'0 0.9
2017-Sep-17 02:59N 47°05' W 002°28'0 0.8
2017-Sep-17 02:30N 47°05' W 002°28'1 1.9
2017-Sep-17 02:00N 47°05' W 002°27'0 0.8
2017-Sep-17 01:30N 47°05' W 002°27'16 2.1
2017-Sep-16 17:39N 47°18' W 002°41'2 9.9
2017-Sep-16 17:30N 47°19' W 002°39'5 9.4
2017-Sep-16 17:00N 47°20' W 002°33'1 2.7
2017-Sep-16 16:30N 47°21' W 002°31'0 0.0
2017-Sep-15 13:51N 47°21' W 002°31'0 0.0
2017-Sep-15 13:28N 47°21' W 002°31'0 0.0
2017-Sep-15 12:58N 47°21' W 002°31'0 0.0
2017-Sep-14 15:09N 47°21' W 002°31'0 0.0
2017-Sep-14 15:00N 47°21' W 002°31'0 0.0
2017-Sep-14 14:20N 47°21' W 002°31'0 0.0
2017-Sep-14 14:00N 47°21' W 002°31'0 0.0
2017-Sep-14 08:49N 47°21' W 002°31'0 0.0
2017-Sep-14 08:21N 47°21' W 002°31'0 0.0
2017-Sep-14 07:59N 47°21' W 002°31'0 0.0
2017-Sep-14 07:30N 47°21' W 002°31'0 0.0
2017-Sep-14 07:00N 47°21' W 002°31'0 0.0
2017-Sep-14 06:29N 47°21' W 002°31'0 0.0
2017-Sep-14 06:00N 47°21' W 002°31'0 0.0
2017-Sep-14 05:29N 47°21' W 002°31'0 0.0
2017-Sep-14 04:58N 47°21' W 002°31'0 0.0
2017-Sep-14 04:28N 47°21' W 002°31'0 0.0
2017-Sep-14 04:00N 47°21' W 002°31'0 0.0
2017-Sep-14 03:28N 47°21' W 002°31'0 0.0
2017-Sep-14 03:00N 47°21' W 002°31'0 0.0
2017-Sep-14 02:30N 47°21' W 002°31'0 0.0
2017-Sep-14 02:00N 47°21' W 002°31'0 0.0
2017-Sep-14 01:27N 47°21' W 002°31'0 0.0
2017-Sep-14 00:59N 47°21' W 002°31'0 0.0
2017-Sep-14 00:29N 47°21' W 002°31'0 0.0
2017-Sep-13 23:59N 47°21' W 002°31'0 0.0
2017-Sep-13 23:29N 47°21' W 002°31'0 0.0
2017-Sep-13 18:11N 47°21' W 002°31'0 0.0
2017-Sep-13 17:52N 47°21' W 002°31'0 0.0
2017-Sep-13 17:27N 47°21' W 002°31'0 0.0
2017-Sep-13 16:59N 47°21' W 002°31'0 0.2
2017-Sep-13 16:29N 47°21' W 002°31'4 7.9
2017-Sep-13 15:59N 47°23' W 002°36'4 9.0
2017-Sep-13 15:30N 47°26' W 002°40'2 4.4
2017-Sep-13 15:00N 47°28' W 002°38'4 8.3
2017-Sep-13 14:30N 47°26' W 002°33'4 8.5
2017-Sep-13 14:00N 47°23' W 002°36'5 9.1
2017-Sep-13 13:30N 47°18' W 002°34'11 2.9
2017-Sep-13 09:37N 47°12' W 002°20'1 0.6
2017-Sep-13 08:45N 47°12' W 002°20'1 3.5
2017-Sep-13 08:30N 47°12' W 002°19'1 2.8
2017-Sep-13 07:59N 47°12' W 002°21'1 1.6
2017-Sep-13 07:27N 47°12' W 002°22'2 3.9
2017-Sep-13 07:00N 47°12' W 002°20'1 2.0
2017-Sep-13 06:30N 47°12' W 002°18'3 5.5
2017-Sep-13 05:57N 47°13' W 002°23'4 8.3
2017-Sep-13 05:29N 47°15' W 002°28'4 7.8
2017-Sep-13 05:00N 47°17' W 002°33'3 5.3
2017-Sep-13 04:30N 47°19' W 002°33'2 3.0
2017-Sep-13 03:41N 47°21' W 002°31'0 0.0
2017-Sep-12 14:49N 47°21' W 002°31'0 0.0
2017-Sep-12 12:06N 47°21' W 002°31'0 0.0
2017-Sep-12 11:59N 47°21' W 002°31'0 0.0
2017-Sep-12 11:30N 47°21' W 002°31'0 0.0
2017-Sep-12 11:00N 47°21' W 002°31'1 1.8
2017-Sep-12 10:30N 47°20' W 002°31'1 2.7
2017-Sep-12 10:00N 47°19' W 002°33'1 2.9
2017-Sep-12 09:30N 47°18' W 002°34'2 4.9
2017-Sep-12 09:00N 47°16' W 002°32'8 4.6
2017-Sep-12 07:16N 47°10' W 002°25'0 0.8
2017-Sep-12 06:52N 47°10' W 002°25'0 0.8
2017-Sep-12 06:29N 47°10' W 002°25'1 1.9
2017-Sep-12 06:00N 47°09' W 002°25'4 7.2
2017-Sep-12 05:25N 47°13' W 002°28'6 8.4
2017-Sep-12 04:46N 47°17' W 002°33'2 6.4
2017-Sep-12 04:28N 47°19' W 002°34'3 6.2
2017-Sep-12 04:00N 47°21' W 002°31'  
Track history (hours):
 
Tides and Currents Weather Stations Pressure Air Temp Water Temp Dewpoint Dewpoint Depression Visibility Wind Speed Wind Dir Waves Ship Positions

F/V Papi Paul

Last reported at 2017-Sep-22 01:54 UTC. Time now 2017-Sep-23 16:33 UTC.
Position N 47°21' W 002°31'.

Length 18 m.

Type: Fishing. MMSI: 228364000.

Date/timePositionNaut miles runAvg speedWind from/ knotsBaromVisibWave heightAir tempDewpointWater temp
2017-Sep-22 01:54N 47°21' W 002°31'0 0.0
2017-Sep-22 01:23N 47°21' W 002°31'0 0.0
2017-Sep-22 00:50N 47°21' W 002°31'0 0.0
2017-Sep-22 00:30N 47°21' W 002°31'0 0.0
2017-Sep-22 00:00N 47°21' W 002°31'0 0.0
2017-Sep-21 23:30N 47°21' W 002°31'0 0.0
2017-Sep-21 22:53N 47°21' W 002°31'0 0.0
2017-Sep-21 22:28N 47°21' W 002°31'0 0.0
2017-Sep-21 22:00N 47°21' W 002°31'0 0.0
2017-Sep-21 21:29N 47°21' W 002°31'0 0.0
2017-Sep-21 20:56N 47°21' W 002°31'0 0.0
2017-Sep-21 15:29N 47°21' W 002°31'2 3.6
2017-Sep-21 15:01N 47°20' W 002°33'1 2.5
2017-Sep-21 14:28N 47°20' W 002°35'2 3.1
2017-Sep-21 13:51N 47°18' W 002°34'9 4.9
2017-Sep-21 11:59N 47°09' W 002°31'2 3.6
2017-Sep-21 11:23N 47°07' W 002°31'2 2.3
2017-Sep-21 10:34N 47°08' W 002°28'0 2.7
2017-Sep-21 10:24N 47°08' W 002°28'2 3.9
2017-Sep-21 09:58N 47°07' W 002°31'1 2.9
2017-Sep-21 09:29N 47°08' W 002°29'2 4.3
2017-Sep-21 08:55N 47°08' W 002°32'2 4.5
2017-Sep-21 08:30N 47°09' W 002°30'1 1.5
2017-Sep-21 08:00N 47°08' W 002°29'1 1.0
2017-Sep-21 07:11N 47°09' W 002°28'2 4.9
2017-Sep-21 06:45N 47°09' W 002°25'1 6.0
2017-Sep-21 06:30N 47°08' W 002°23'3 5.8
2017-Sep-21 06:00N 47°10' W 002°25'4 7.2
2017-Sep-21 05:30N 47°13' W 002°29'4 7.4
2017-Sep-21 05:00N 47°16' W 002°32'3 5.8
2017-Sep-21 04:30N 47°18' W 002°35'4 7.0
2017-Sep-21 03:59N 47°21' W 002°31'0 0.0
2017-Sep-21 03:28N 47°21' W 002°31'0 0.0
2017-Sep-21 03:00N 47°21' W 002°31'0 0.0
2017-Sep-21 02:30N 47°21' W 002°31'0 0.0
2017-Sep-21 02:00N 47°21' W 002°31'0 0.0
2017-Sep-21 01:25N 47°21' W 002°31'0 0.0
2017-Sep-21 00:56N 47°21' W 002°31'0 0.0
2017-Sep-21 00:27N 47°21' W 002°31'0 0.0
2017-Sep-21 00:00N 47°21' W 002°31'0 0.0
2017-Sep-20 20:13N 47°21' W 002°31'0 0.0
2017-Sep-20 19:52N 47°21' W 002°31'0 0.0
2017-Sep-20 19:31N 47°21' W 002°31'0 0.0
2017-Sep-20 19:00N 47°21' W 002°31'0 0.0
2017-Sep-20 18:30N 47°21' W 002°31'0 0.0
2017-Sep-20 17:56N 47°21' W 002°31'0 0.0
2017-Sep-20 17:28N 47°21' W 002°31'0 0.0
2017-Sep-20 16:57N 47°21' W 002°31'1 3.3
2017-Sep-20 16:31N 47°20' W 002°32'4 8.0
2017-Sep-20 15:59N 47°16' W 002°31'6 9.7
2017-Sep-20 15:20N 47°13' W 002°23'2 5.8
2017-Sep-20 14:58N 47°12' W 002°20'1 1.0
2017-Sep-20 14:00N 47°12' W 002°21'1 1.6
2017-Sep-20 13:29N 47°13' W 002°20'1 2.2
2017-Sep-20 12:57N 47°12' W 002°22'2 3.8
2017-Sep-20 12:22N 47°11' W 002°24'1 2.6
2017-Sep-20 11:59N 47°10' W 002°25'2 3.8
2017-Sep-20 11:30N 47°08' W 002°25'2 3.8
2017-Sep-20 10:59N 47°08' W 002°22'2 3.2
2017-Sep-20 10:30N 47°09' W 002°24'1 1.6
2017-Sep-20 10:00N 47°09' W 002°25'0 0.8
2017-Sep-20 09:28N 47°09' W 002°24'1 2.9
2017-Sep-20 09:00N 47°09' W 002°26'1 2.4
2017-Sep-20 08:30N 47°10' W 002°25'0 0.5
2017-Sep-20 08:00N 47°09' W 002°25'1 1.2
2017-Sep-20 07:30N 47°09' W 002°24'1 1.9
2017-Sep-20 06:55N 47°08' W 002°25'2 4.0
2017-Sep-20 06:30N 47°09' W 002°25'2 3.8
2017-Sep-20 06:00N 47°08' W 002°23'4 7.6
2017-Sep-20 05:30N 47°11' W 002°26'5 8.4
2017-Sep-20 04:54N 47°15' W 002°31'3 8.4
2017-Sep-20 04:30N 47°18' W 002°34'4 1.4
2017-Sep-20 01:35N 47°21' W 002°31'0 0.0
2017-Sep-20 01:20N 47°21' W 002°31'0 0.0
2017-Sep-20 00:25N 47°21' W 002°31'0 0.0
2017-Sep-19 18:40N 47°21' W 002°31'1 8.3
2017-Sep-19 18:30N 47°20' W 002°32'2 4.1
2017-Sep-19 17:59N 47°18' W 002°34'3 5.5
2017-Sep-19 17:30N 47°16' W 002°33'11 3.8
2017-Sep-19 14:40N 47°08' W 002°23'1 0.6
2017-Sep-19 12:55N 47°09' W 002°23'8 1.0
2017-Sep-19 04:43N 47°10' W 002°34'1110.2
2017-Sep-19 03:40N 47°21' W 002°34'0 0.8
2017-Sep-19 03:30N 47°21' W 002°34'2 1.1
2017-Sep-19 01:17N 47°21' W 002°31'0 0.0
2017-Sep-19 00:53N 47°21' W 002°31'0 0.0
2017-Sep-18 23:33N 47°21' W 002°31'0 0.0
2017-Sep-18 23:08N 47°21' W 002°31'0 0.0
2017-Sep-18 19:18N 47°21' W 002°31'3 9.1
2017-Sep-18 19:00N 47°19' W 002°34'5 9.8
2017-Sep-18 18:30N 47°14' W 002°35'5 9.9
2017-Sep-18 18:00N 47°09' W 002°35'9 1.4
2017-Sep-18 11:40N 47°03' W 002°25'2 8.4
2017-Sep-18 11:24N 47°05' W 002°23'2 5.6
2017-Sep-18 10:58N 47°07' W 002°21'1 2.7
2017-Sep-18 10:30N 47°06' W 002°19'2 3.8
2017-Sep-18 09:59N 47°05' W 002°22'1 2.3
2017-Sep-18 09:30N 47°05' W 002°20'2 3.8
2017-Sep-18 08:54N 47°04' W 002°23'2 5.4
2017-Sep-18 08:30N 47°06' W 002°22'4 7.0
2017-Sep-18 08:00N 47°09' W 002°24'4 7.6
2017-Sep-18 07:30N 47°12' W 002°20'2 4.4
2017-Sep-18 07:00N 47°12' W 002°17'2 3.1
2017-Sep-18 06:28N 47°12' W 002°20'2 3.6
2017-Sep-18 05:49N 47°13' W 002°22'1 3.8
2017-Sep-18 05:30N 47°14' W 002°24'4 7.6
2017-Sep-18 04:59N 47°15' W 002°29'4 8.1
2017-Sep-18 04:30N 47°18' W 002°34'3 5.4
2017-Sep-18 04:00N 47°20' W 002°32'1 2.1
2017-Sep-18 03:30N 47°21' W 002°31'0 0.1
2017-Sep-18 03:00N 47°21' W 002°31'0 0.0
2017-Sep-18 02:23N 47°21' W 002°31'0 0.0
2017-Sep-18 01:57N 47°21' W 002°31'0 0.0
2017-Sep-18 01:28N 47°21' W 002°31'0 0.0
2017-Sep-18 01:00N 47°21' W 002°31'0 0.0
2017-Sep-18 00:22N 47°21' W 002°31'0 0.0
2017-Sep-17 23:59N 47°21' W 002°31'0 0.0
2017-Sep-17 22:55N 47°21' W 002°31'0 0.0
2017-Sep-17 22:19N 47°21' W 002°31'0 0.0
2017-Sep-17 21:50N 47°21' W 002°31'0 0.0
2017-Sep-17 21:01N 47°21' W 002°31'0 0.0
2017-Sep-17 18:23N 47°21' W 002°31'2 4.0
2017-Sep-17 18:00N 47°20' W 002°32'3 5.7
2017-Sep-17 17:30N 47°17' W 002°34'8 9.4
2017-Sep-17 16:42N 47°13' W 002°24'3 8.0
2017-Sep-17 16:18N 47°12' W 002°20'0 0.6
2017-Sep-17 16:00N 47°12' W 002°20'1 1.3
2017-Sep-17 15:24N 47°12' W 002°19'2 3.8
2017-Sep-17 15:00N 47°12' W 002°21'2 4.4
2017-Sep-17 14:30N 47°13' W 002°18'1 2.7
2017-Sep-17 14:00N 47°11' W 002°18'4 7.3
2017-Sep-17 13:30N 47°09' W 002°22'5 7.2
2017-Sep-17 12:47N 47°08' W 002°29'2 4.9
2017-Sep-17 12:21N 47°09' W 002°27'2 5.3
2017-Sep-17 12:00N 47°09' W 002°24'1 1.1
2017-Sep-17 11:21N 47°10' W 002°25'2 4.1
2017-Sep-17 10:55N 47°08' W 002°26'2 3.4
2017-Sep-17 10:27N 47°06' W 002°25'5 1.1
2017-Sep-17 05:50N 47°02' W 002°29'2 6.6
2017-Sep-17 05:29N 47°04' W 002°27'1 1.8
2017-Sep-17 05:00N 47°04' W 002°28'0 0.4
2017-Sep-17 04:30N 47°04' W 002°28'1 1.0
2017-Sep-17 03:54N 47°04' W 002°27'0 0.9
2017-Sep-17 03:30N 47°05' W 002°27'0 0.9
2017-Sep-17 02:59N 47°05' W 002°28'0 0.8
2017-Sep-17 02:30N 47°05' W 002°28'1 1.9
2017-Sep-17 02:00N 47°05' W 002°27'0 0.8
2017-Sep-17 01:30N 47°05' W 002°27'16 2.1
2017-Sep-16 17:39N 47°18' W 002°41'2 9.9
2017-Sep-16 17:30N 47°19' W 002°39'5 9.4
2017-Sep-16 17:00N 47°20' W 002°33'1 2.7
2017-Sep-16 16:30N 47°21' W 002°31'0 0.0
2017-Sep-15 13:51N 47°21' W 002°31'0 0.0
2017-Sep-15 13:28N 47°21' W 002°31'0 0.0
2017-Sep-15 12:58N 47°21' W 002°31'0 0.0
2017-Sep-14 15:09N 47°21' W 002°31'0 0.0
2017-Sep-14 15:00N 47°21' W 002°31'0 0.0
2017-Sep-14 14:20N 47°21' W 002°31'0 0.0
2017-Sep-14 14:00N 47°21' W 002°31'0 0.0
2017-Sep-14 08:49N 47°21' W 002°31'0 0.0
2017-Sep-14 08:21N 47°21' W 002°31'0 0.0
2017-Sep-14 07:59N 47°21' W 002°31'0 0.0
2017-Sep-14 07:30N 47°21' W 002°31'0 0.0
2017-Sep-14 07:00N 47°21' W 002°31'0 0.0
2017-Sep-14 06:29N 47°21' W 002°31'0 0.0
2017-Sep-14 06:00N 47°21' W 002°31'0 0.0
2017-Sep-14 05:29N 47°21' W 002°31'0 0.0
2017-Sep-14 04:58N 47°21' W 002°31'0 0.0
2017-Sep-14 04:28N 47°21' W 002°31'0 0.0
2017-Sep-14 04:00N 47°21' W 002°31'0 0.0
2017-Sep-14 03:28N 47°21' W 002°31'0 0.0
2017-Sep-14 03:00N 47°21' W 002°31'0 0.0
2017-Sep-14 02:30N 47°21' W 002°31'0 0.0
2017-Sep-14 02:00N 47°21' W 002°31'0 0.0
2017-Sep-14 01:27N 47°21' W 002°31'0 0.0
2017-Sep-14 00:59N 47°21' W 002°31'0 0.0
2017-Sep-14 00:29N 47°21' W 002°31'0 0.0
2017-Sep-13 23:59N 47°21' W 002°31'0 0.0
2017-Sep-13 23:29N 47°21' W 002°31'0 0.0
2017-Sep-13 18:11N 47°21' W 002°31'0 0.0
2017-Sep-13 17:52N 47°21' W 002°31'0 0.0
2017-Sep-13 17:27N 47°21' W 002°31'0 0.0
2017-Sep-13 16:59N 47°21' W 002°31'0 0.2
2017-Sep-13 16:29N 47°21' W 002°31'4 7.9
2017-Sep-13 15:59N 47°23' W 002°36'4 9.0
2017-Sep-13 15:30N 47°26' W 002°40'2 4.4
2017-Sep-13 15:00N 47°28' W 002°38'4 8.3
2017-Sep-13 14:30N 47°26' W 002°33'4 8.5
2017-Sep-13 14:00N 47°23' W 002°36'5 9.1
2017-Sep-13 13:30N 47°18' W 002°34'11 2.9
2017-Sep-13 09:37N 47°12' W 002°20'1 0.6
2017-Sep-13 08:45N 47°12' W 002°20'1 3.5
2017-Sep-13 08:30N 47°12' W 002°19'1 2.8
2017-Sep-13 07:59N 47°12' W 002°21'1 1.6
2017-Sep-13 07:27N 47°12' W 002°22'2 3.9
2017-Sep-13 07:00N 47°12' W 002°20'1 2.0
2017-Sep-13 06:30N 47°12' W 002°18'3 5.5
2017-Sep-13 05:57N 47°13' W 002°23'4 8.3
2017-Sep-13 05:29N 47°15' W 002°28'4 7.8
2017-Sep-13 05:00N 47°17' W 002°33'3 5.3
2017-Sep-13 04:30N 47°19' W 002°33'2 3.0
2017-Sep-13 03:41N 47°21' W 002°31'0 0.0
2017-Sep-12 14:49N 47°21' W 002°31'0 0.0
2017-Sep-12 12:06N 47°21' W 002°31'0 0.0
2017-Sep-12 11:59N 47°21' W 002°31'0 0.0
2017-Sep-12 11:30N 47°21' W 002°31'0 0.0
2017-Sep-12 11:00N 47°21' W 002°31'1 1.8
2017-Sep-12 10:30N 47°20' W 002°31'1 2.7
2017-Sep-12 10:00N 47°19' W 002°33'1 2.9
2017-Sep-12 09:30N 47°18' W 002°34'2 4.9
2017-Sep-12 09:00N 47°16' W 002°32'8 4.6
2017-Sep-12 07:16N 47°10' W 002°25'0 0.8
2017-Sep-12 06:52N 47°10' W 002°25'0 0.8
2017-Sep-12 06:29N 47°10' W 002°25'1 1.9
2017-Sep-12 06:00N 47°09' W 002°25'4 7.2
2017-Sep-12 05:25N 47°13' W 002°28'6 8.4
2017-Sep-12 04:46N 47°17' W 002°33'2 6.4
2017-Sep-12 04:28N 47°19' W 002°34'3 6.2
2017-Sep-12 04:00N 47°21' W 002°31'  

Dump ship's entire track history